KMCO

Orlando International

Airport
ICAO code
KMCO
Summary
ICAO Region
NAM
ICAO Territory
Location

Orlando, Florida,

Coordinates
28° 25' 53" N , 81° 18' 30" W
KCC
Cfa
Airport WX
Lightning
Metar
Observation
KMCO 152153Z 27004KT 10SM SCT055 BKN075 33/21 A2988 RMK AO2 SLP115 T03280206
Station
Orlando, Orlando International Airport
Date/Time
2022-08-15 21:53:00
Wind direction
270°
Wind speed
04 kts
Lowest cloud amount
scattered clouds
Temperature
32.8°C
Dew point
20.6°C
Humidity
48%
Weather condition
n/a

Description

International airport 6 nm south east of Orlando, Florida, USA.

Climatology

Humid “subtropical” climate (Köppen climate classification Cfa) - characterized by hot, humid summers and cool winters. From October to March the temperatures are more moderate and rain less frequent. Most summer rainfall occurs during thunderstorms and occasional tropical storms (hurricanes).

Runways

Designator Length Width Surface Rops
17L/35R 2743 46 ASP Yes/Yes
17R/35L 3048 46 CON Yes/Yes
18L/36R 3659 61 PEM Yes/Yes
18R/36L 3659 61 CON Yes/Yes

Airport map

Aerial View

SKYbrary Partners:

Safety knowledge contributed by: